Time;durP1;ratioP1;P1;durP2;ratioP2;P2;SDS_P1;SDS_P2;PMS_P1;PMS_P2;Temp;Humidity;BMP_temperature;BMP_pressure;BME280_temperature;BME280_humidity;BME280_pressure;Samples;Min_cycle;Max_cycle;Signal;HPM_P1;HPM_P2
2023/09/20 00:00:15;;;;;;;8.07;2.58;;;16.70;99.90;;;;;;5062383;28;20044;-88
2023/09/20 00:02:41;;;;;;;8.18;2.33;;;16.70;99.90;;;;;;5064141;28;20036;-87
2023/09/20 00:05:14;;;;;;;6.95;2.38;;;16.70;99.90;;;;;;5041721;28;20040;-87
2023/09/20 00:07:41;;;;;;;7.38;2.83;;;16.70;99.90;;;;;;5048918;28;20489;-87
2023/09/20 00:10:12;;;;;;;6.60;2.35;;;16.70;99.90;;;;;;5066346;28;20057;-88
2023/09/20 00:12:39;;;;;;;6.32;2.03;;;16.80;99.90;;;;;;5046106;28;20454;-86
2023/09/20 00:15:07;;;;;;;5.93;2.20;;;16.80;99.90;;;;;;5060493;28;20078;-87
2023/09/20 00:17:34;;;;;;;6.72;2.65;;;17.10;99.90;;;;;;5036680;28;20041;-88
2023/09/20 00:20:13;;;;;;;6.70;2.40;;;16.80;99.90;;;;;;5064913;28;20033;-88
2023/09/20 00:22:44;;;;;;;6.97;2.28;;;16.80;99.90;;;;;;5056626;28;20402;-88
2023/09/20 00:25:12;;;;;;;8.38;2.33;;;16.70;99.90;;;;;;5058738;28;20098;-88
2023/09/20 00:27:40;;;;;;;6.72;2.30;;;16.70;99.90;;;;;;5058706;28;20055;-88
2023/09/20 00:30:10;;;;;;;7.40;2.55;;;16.70;99.90;;;;;;5047325;28;20444;-88
2023/09/20 00:32:40;;;;;;;8.10;2.40;;;16.70;99.90;;;;;;5038814;28;20519;-87
2023/09/20 00:35:11;;;;;;;7.60;2.72;;;16.70;99.90;;;;;;5049873;28;20067;-86
2023/09/20 00:37:41;;;;;;;9.63;2.70;;;16.70;99.90;;;;;;5052595;28;20036;-88
2023/09/20 00:40:16;;;;;;;8.15;2.38;;;16.70;99.90;;;;;;5066304;28;20098;-88
2023/09/20 00:42:45;;;;;;;8.90;2.63;;;16.70;99.90;;;;;;5064763;28;20116;-87
2023/09/20 00:45:13;;;;;;;8.18;2.72;;;16.70;99.90;;;;;;5064007;28;20056;-88
2023/09/20 00:47:40;;;;;;;7.72;2.50;;;16.70;99.90;;;;;;5059128;28;20122;-88
2023/09/20 00:50:10;;;;;;;7.53;2.60;;;16.70;99.90;;;;;;5061075;28;20098;-89
2023/09/20 00:52:41;;;;;;;7.82;2.50;;;16.70;99.90;;;;;;5079362;28;20414;-88
2023/09/20 00:55:15;;;;;;;9.63;2.80;;;16.70;99.90;;;;;;5044245;28;20102;-88
2023/09/20 00:57:43;;;;;;;8.90;2.65;;;16.70;99.90;;;;;;5045497;28;20072;-89
2023/09/20 01:00:19;;;;;;;8.13;2.50;;;16.70;99.90;;;;;;5063745;28;20048;-88
2023/09/20 01:02:45;;;;;;;7.15;2.40;;;16.70;99.90;;;;;;5055382;28;20036;-87
2023/09/20 01:05:12;;;;;;;7.78;2.92;;;16.70;99.90;;;;;;5043448;28;20041;-88
2023/09/20 01:07:42;;;;;;;8.90;2.80;;;16.70;99.90;;;;;;5071350;28;20117;-88
2023/09/20 01:10:09;;;;;;;8.02;2.67;;;16.70;99.90;;;;;;5068140;28;20580;-88
2023/09/20 01:12:36;;;;;;;8.38;2.90;;;16.70;99.90;;;;;;5064554;28;20037;-87
2023/09/20 01:15:03;;;;;;;7.25;2.60;;;16.70;99.90;;;;;;5068236;28;20055;-87
2023/09/20 01:17:29;;;;;;;9.10;2.80;;;16.70;99.90;;;;;;5061066;28;20052;-87
2023/09/20 01:19:55;;;;;;;8.18;2.65;;;16.70;99.90;;;;;;5033519;28;20112;-87
2023/09/20 01:22:20;;;;;;;8.27;2.60;;;16.70;99.90;;;;;;5059917;28;20516;-88
2023/09/20 01:24:47;;;;;;;8.38;2.50;;;16.80;99.90;;;;;;5060154;28;20082;-89
2023/09/20 01:27:13;;;;;;;10.05;2.90;;;16.80;99.90;;;;;;5057796;28;20106;-88
2023/09/20 01:29:39;;;;;;;10.55;3.33;;;16.80;99.90;;;;;;5053850;28;20489;-88
2023/09/20 01:32:05;;;;;;;9.27;2.40;;;16.80;99.90;;;;;;5061629;28;20045;-88
2023/09/20 01:34:31;;;;;;;10.95;2.90;;;16.80;99.90;;;;;;5080099;28;20478;-87
2023/09/20 01:36:58;;;;;;;8.68;2.70;;;16.80;99.90;;;;;;5065756;28;20045;-87
2023/09/20 01:39:24;;;;;;;13.27;2.88;;;16.80;99.90;;;;;;5067381;28;20044;-88
2023/09/20 01:41:50;;;;;;;8.30;2.70;;;16.80;99.90;;;;;;5050161;28;20094;-88
2023/09/20 01:44:16;;;;;;;8.18;2.60;;;16.80;99.90;;;;;;5036654;28;20494;-88
2023/09/20 01:46:42;;;;;;;9.07;3.13;;;16.80;99.90;;;;;;5064273;28;20102;-89
2023/09/20 01:49:08;;;;;;;10.50;3.05;;;16.80;99.90;;;;;;5066627;28;20041;-87
2023/09/20 01:51:34;;;;;;;10.15;2.88;;;16.80;99.90;;;;;;5048839;28;20120;-87
2023/09/20 01:53:59;;;;;;;6.90;2.28;;;16.80;99.90;;;;;;5064955;28;20206;-88
2023/09/20 01:56:26;;;;;;;8.43;2.38;;;16.80;99.90;;;;;;5067833;28;20592;-88
2023/09/20 01:58:51;;;;;;;8.25;2.70;;;16.80;99.90;;;;;;5058856;28;20048;-88
2023/09/20 02:01:17;;;;;;;9.70;2.97;;;16.90;99.90;;;;;;5034445;28;20053;-87
2023/09/20 02:03:43;;;;;;;9.57;2.47;;;16.90;99.90;;;;;;5065299;28;20043;-88
2023/09/20 02:06:10;;;;;;;9.52;2.60;;;16.90;99.90;;;;;;5043582;28;20141;-86
2023/09/20 02:08:36;;;;;;;8.25;2.55;;;16.90;99.90;;;;;;5050077;28;20654;-89
2023/09/20 02:11:03;;;;;;;11.38;2.90;;;16.90;99.90;;;;;;5048077;28;20052;-88
2023/09/20 02:13:28;;;;;;;7.60;2.40;;;16.90;99.90;;;;;;5042145;28;20104;-87
2023/09/20 02:15:57;;;;;;;7.97;2.35;;;16.90;99.90;;;;;;5044175;28;20041;-87
2023/09/20 02:18:22;;;;;;;8.55;2.47;;;16.90;99.90;;;;;;5069261;28;20420;-87
2023/09/20 02:20:49;;;;;;;6.45;2.30;;;16.90;99.90;;;;;;5065831;28;20124;-87
2023/09/20 02:23:15;;;;;;;8.63;2.95;;;16.90;99.90;;;;;;5052812;28;20048;-87
2023/09/20 02:25:41;;;;;;;8.77;2.30;;;17.00;99.90;;;;;;5063946;28;20119;-88
2023/09/20 02:28:07;;;;;;;9.45;2.33;;;17.00;99.90;;;;;;5062965;28;20032;-88
2023/09/20 02:30:36;;;;;;;8.32;2.50;;;17.00;99.90;;;;;;5048924;28;20049;-89
2023/09/20 02:33:05;;;;;;;7.50;2.53;;;17.00;99.90;;;;;;5081205;28;20115;-88
2023/09/20 02:35:33;;;;;;;8.93;2.70;;;17.00;99.90;;;;;;5046294;28;20469;-88
2023/09/20 02:37:59;;;;;;;8.45;2.50;;;17.00;99.90;;;;;;5063468;28;20119;-88
2023/09/20 02:40:28;;;;;;;7.60;2.42;;;17.00;99.90;;;;;;5041033;28;20537;-88
2023/09/20 02:42:59;;;;;;;7.57;2.65;;;17.00;99.90;;;;;;5064572;28;20099;-87
2023/09/20 02:45:28;;;;;;;7.45;2.45;;;17.00;99.90;;;;;;5055712;28;20059;-87
2023/09/20 02:47:55;;;;;;;7.50;2.50;;;17.00;99.90;;;;;;5043662;28;20045;-88
2023/09/20 02:50:25;;;;;;;7.82;2.33;;;17.00;99.90;;;;;;5042624;28;20118;-87
2023/09/20 02:52:52;;;;;;;7.13;2.40;;;17.00;99.90;;;;;;5070047;28;20432;-88
2023/09/20 02:55:23;;;;;;;7.25;2.40;;;17.10;99.90;;;;;;5036942;28;20061;-87
2023/09/20 02:57:52;;;;;;;8.50;2.58;;;17.10;99.90;;;;;;5049654;28;20040;-89
2023/09/20 03:00:27;;;;;;;6.95;2.33;;;17.10;99.90;;;;;;5035957;28;20059;-88
2023/09/20 03:02:55;;;;;;;8.57;2.63;;;17.10;99.90;;;;;;5067191;28;20501;-87
2023/09/20 03:05:29;;;;;;;8.95;2.30;;;17.10;99.90;;;;;;5072024;28;20032;-88
2023/09/20 03:07:55;;;;;;;8.20;2.40;;;17.10;99.90;;;;;;5055418;28;20117;-87
2023/09/20 03:10:22;;;;;;;7.72;2.22;;;17.10;99.90;;;;;;5052355;28;20080;-88
2023/09/20 03:12:52;;;;;;;7.63;2.20;;;17.10;99.90;;;;;;5050924;28;20045;-88
2023/09/20 03:15:23;;;;;;;10.50;2.65;;;17.40;99.90;;;;;;5068096;28;20044;-87
2023/09/20 03:17:51;;;;;;;7.75;2.40;;;17.10;99.90;;;;;;5044791;28;20046;-87
2023/09/20 03:20:24;;;;;;;8.93;2.72;;;17.10;99.90;;;;;;5037546;28;20489;-87
2023/09/20 03:23:03;;;;;;;6.85;2.30;;;17.10;99.90;;;;;;5075875;28;20042;-88
2023/09/20 03:25:29;;;;;;;7.00;2.47;;;17.10;99.90;;;;;;5081850;28;20414;-86
2023/09/20 03:27:56;;;;;;;6.80;2.40;;;17.10;99.90;;;;;;5068778;28;20032;-87
2023/09/20 03:30:22;;;;;;;7.18;2.30;;;17.10;99.90;;;;;;5087006;28;20048;-87
2023/09/20 03:32:49;;;;;;;7.70;2.30;;;17.10;99.90;;;;;;5057006;28;20051;-88
2023/09/20 03:35:16;;;;;;;8.13;2.70;;;17.10;99.90;;;;;;5071654;28;20040;-88
2023/09/20 03:37:44;;;;;;;8.15;2.58;;;17.20;99.90;;;;;;5058491;28;20119;-88
2023/09/20 03:40:16;;;;;;;7.97;2.50;;;17.20;99.90;;;;;;5042936;28;20082;-88
2023/09/20 03:42:42;;;;;;;5.10;2.03;;;17.10;99.90;;;;;;5045985;28;20040;-88
2023/09/20 03:45:13;;;;;;;9.02;2.60;;;17.10;99.90;;;;;;5044879;28;20109;-87
2023/09/20 03:47:45;;;;;;;6.70;2.35;;;17.20;99.90;;;;;;5067399;28;20537;-87
2023/09/20 03:50:11;;;;;;;7.03;2.20;;;17.10;99.90;;;;;;5045694;28;20282;-88
2023/09/20 03:52:37;;;;;;;8.43;2.58;;;17.10;99.90;;;;;;5043632;28;20338;-88
2023/09/20 03:55:04;;;;;;;8.05;2.63;;;17.10;99.90;;;;;;5033840;28;20041;-87
2023/09/20 03:57:30;;;;;;;7.05;2.47;;;;;;;;;;5050257;28;20045;-88
2023/09/20 03:59:58;;;;;;;7.72;2.35;;;17.10;99.90;;;;;;5044321;28;20040;-88
2023/09/20 04:02:24;;;;;;;7.90;2.22;;;17.10;99.90;;;;;;5069859;28;20126;-89
2023/09/20 04:04:53;;;;;;;9.32;2.50;;;17.10;99.90;;;;;;5078274;28;20579;-87
2023/09/20 04:07:19;;;;;;;10.30;2.70;;;17.10;99.90;;;;;;5065599;28;20040;-88
2023/09/20 04:09:45;;;;;;;8.27;2.30;;;17.10;99.90;;;;;;5044923;28;20131;-87
2023/09/20 04:12:12;;;;;;;8.55;2.50;;;17.10;99.90;;;;;;5061952;28;20127;-87
2023/09/20 04:14:38;;;;;;;8.93;2.90;;;17.10;99.90;;;;;;5042824;28;20052;-88
2023/09/20 04:17:04;;;;;;;7.55;2.40;;;17.10;99.90;;;;;;5058706;28;20036;-87
2023/09/20 04:19:31;;;;;;;9.35;2.35;;;17.10;99.90;;;;;;5064100;28;20044;-87
2023/09/20 04:21:57;;;;;;;8.52;2.60;;;17.10;99.90;;;;;;5069397;28;20131;-88
2023/09/20 04:24:23;;;;;;;9.48;2.83;;;17.10;99.90;;;;;;5067407;28;20592;-87
2023/09/20 04:26:49;;;;;;;8.85;2.47;;;17.10;99.90;;;;;;5043990;28;20433;-87
2023/09/20 04:29:15;;;;;;;10.40;2.80;;;17.10;99.90;;;;;;5068501;28;20131;-88
2023/09/20 04:31:40;;;;;;;9.52;2.50;;;17.10;99.90;;;;;;5067300;28;20127;-87
2023/09/20 04:34:06;;;;;;;10.32;2.90;;;17.10;99.90;;;;;;5033498;28;20425;-88
2023/09/20 04:36:32;;;;;;;8.93;2.40;;;17.10;99.90;;;;;;5060681;28;20389;-88
2023/09/20 04:38:58;;;;;;;8.43;2.50;;;17.00;99.90;;;;;;5069309;28;20055;-87
2023/09/20 04:41:23;;;;;;;7.47;2.40;;;17.00;99.90;;;;;;5065420;28;20048;-87
2023/09/20 04:43:49;;;;;;;8.25;2.55;;;17.00;99.90;;;;;;5069223;28;20053;-88
2023/09/20 04:46:15;;;;;;;8.23;2.58;;;;;;;;;;5036302;28;20536;-89
2023/09/20 04:48:41;;;;;;;7.85;2.45;;;16.90;99.90;;;;;;5051386;28;20051;-89
2023/09/20 04:51:10;;;;;;;8.77;2.90;;;16.90;99.90;;;;;;5077859;28;20036;-87
2023/09/20 04:53:36;;;;;;;8.32;2.50;;;16.80;99.90;;;;;;5068660;28;20139;-88
2023/09/20 04:56:02;;;;;;;8.57;2.75;;;16.80;99.90;;;;;;5061787;28;20123;-87
2023/09/20 04:58:28;;;;;;;7.05;2.30;;;16.70;99.90;;;;;;5039939;28;20043;-88
2023/09/20 05:00:54;;;;;;;7.97;2.55;;;16.70;99.90;;;;;;5059997;28;20033;-88
2023/09/20 05:03:20;;;;;;;8.50;2.33;;;16.70;99.90;;;;;;5075599;28;20039;-88
2023/09/20 05:05:50;;;;;;;8.02;2.45;;;16.70;99.90;;;;;;5057152;28;20075;-87
2023/09/20 05:08:16;;;;;;;6.53;2.08;;;16.60;99.90;;;;;;5076911;28;20072;-87
2023/09/20 05:10:45;;;;;;;9.93;2.53;;;16.60;99.90;;;;;;5044430;28;20439;-88
2023/09/20 05:13:12;;;;;;;7.47;2.40;;;16.60;99.90;;;;;;5017545;28;20051;-88
2023/09/20 05:15:38;;;;;;;9.48;2.67;;;16.60;99.90;;;;;;5037360;28;20052;-87
2023/09/20 05:18:04;;;;;;;8.13;2.55;;;16.50;99.90;;;;;;5054607;28;20135;-87
2023/09/20 05:20:31;;;;;;;8.52;2.63;;;16.50;99.90;;;;;;5047580;28;20072;-89
2023/09/20 05:22:58;;;;;;;8.35;2.78;;;16.50;99.90;;;;;;5067286;28;20415;-88
2023/09/20 05:25:25;;;;;;;9.02;2.50;;;16.50;99.90;;;;;;5071137;28;20098;-87
2023/09/20 05:27:51;;;;;;;8.88;2.67;;;16.50;99.90;;;;;;5063973;28;20044;-88
2023/09/20 05:30:18;;;;;;;8.52;2.60;;;16.50;99.90;;;;;;5089400;28;20119;-88
2023/09/20 05:32:46;;;;;;;7.80;2.65;;;16.50;99.90;;;;;;5090429;28;20044;-87
2023/09/20 05:35:13;;;;;;;8.18;2.67;;;16.50;99.90;;;;;;5054448;28;20032;-89
2023/09/20 05:37:39;;;;;;;10.82;2.72;;;16.50;99.90;;;;;;5072972;28;20047;-87
2023/09/20 05:40:17;;;;;;;9.18;2.50;;;16.60;99.90;;;;;;5055319;28;20048;-87
2023/09/20 05:42:44;;;;;;;8.88;2.60;;;16.50;99.90;;;;;;5070280;28;20488;-89
2023/09/20 05:45:10;;;;;;;7.63;2.38;;;16.60;99.90;;;;;;5075116;28;20100;-88
2023/09/20 05:47:36;;;;;;;6.85;2.25;;;16.60;99.90;;;;;;5053224;28;20048;-89
2023/09/20 05:50:03;;;;;;;7.82;2.45;;;16.60;99.90;;;;;;5075201;28;20040;-87
2023/09/20 05:52:28;;;;;;;9.02;2.90;;;16.60;99.90;;;;;;5074449;28;20059;-90
2023/09/20 05:54:55;;;;;;;9.20;2.70;;;16.60;99.90;;;;;;5071277;28;20052;-89
2023/09/20 05:57:22;;;;;;;8.02;2.40;;;16.70;99.90;;;;;;5061548;28;20782;-87
2023/09/20 05:59:48;;;;;;;8.55;2.50;;;16.70;99.90;;;;;;5092986;28;20119;-87
2023/09/20 06:02:13;;;;;;;8.27;2.38;;;16.70;99.90;;;;;;5074368;28;20135;-87
2023/09/20 06:04:39;;;;;;;7.72;2.30;;;16.70;99.90;;;;;;5078939;28;20035;-87
2023/09/20 06:07:05;;;;;;;7.15;2.53;;;16.70;99.90;;;;;;5070085;28;20437;-88
2023/09/20 06:09:31;;;;;;;9.95;2.58;;;16.60;99.90;;;;;;5091306;28;20031;-87
2023/09/20 06:11:56;;;;;;;8.13;2.55;;;16.60;99.90;;;;;;5057501;28;20405;-87
2023/09/20 06:14:22;;;;;;;7.22;2.33;;;16.60;99.90;;;;;;5074609;28;20037;-88
2023/09/20 06:16:48;;;;;;;9.43;2.40;;;16.60;99.90;;;;;;5077029;28;20032;-87
2023/09/20 06:19:17;;;;;;;8.85;2.63;;;16.60;99.90;;;;;;5074639;28;20310;-88
2023/09/20 06:21:43;;;;;;;8.00;2.28;;;16.60;99.90;;;;;;5074098;28;20048;-88
2023/09/20 06:24:12;;;;;;;9.05;2.65;;;16.60;99.90;;;;;;5074208;28;20060;-87
2023/09/20 06:26:40;;;;;;;8.30;2.40;;;16.60;99.90;;;;;;5072092;28;20491;-87
2023/09/20 06:29:06;;;;;;;7.55;2.55;;;16.60;99.90;;;;;;5067324;28;20072;-88
2023/09/20 06:31:32;;;;;;;7.25;2.30;;;16.60;99.90;;;;;;5086681;28;20037;-86
2023/09/20 06:33:58;;;;;;;6.40;2.05;;;16.60;99.90;;;;;;5067816;28;20044;-88
2023/09/20 06:36:24;;;;;;;11.50;2.50;;;16.60;99.90;;;;;;5071696;28;20043;-87
2023/09/20 06:38:50;;;;;;;6.32;2.20;;;16.60;99.90;;;;;;5065817;28;20362;-87
2023/09/20 06:41:16;;;;;;;7.63;2.70;;;16.60;99.90;;;;;;5091756;28;20043;-87
2023/09/20 06:43:42;;;;;;;8.35;2.35;;;16.60;99.90;;;;;;5070560;28;20047;-89
2023/09/20 06:46:08;;;;;;;6.30;2.10;;;16.60;99.90;;;;;;5057318;28;20052;-89
2023/09/20 06:48:34;;;;;;;8.02;2.40;;;16.60;99.90;;;;;;5070823;28;20432;-87
2023/09/20 06:51:00;;;;;;;7.18;2.20;;;16.60;99.90;;;;;;5073391;28;20079;-88
2023/09/20 06:53:26;;;;;;;6.93;3.08;;;16.60;99.90;;;;;;5073893;28;20485;-87
2023/09/20 06:55:52;;;;;;;6.97;2.65;;;16.60;99.90;;;;;;5073261;28;20048;-86
2023/09/20 06:58:21;;;;;;;6.78;2.38;;;16.60;99.90;;;;;;5071651;28;20470;-87
2023/09/20 07:00:48;;;;;;;7.60;2.25;;;16.70;99.90;;;;;;5089734;28;20047;-88
2023/09/20 07:03:14;;;;;;;8.23;2.60;;;16.70;99.90;;;;;;5056861;28;20051;-89
2023/09/20 07:05:40;;;;;;;7.28;2.20;;;16.70;99.90;;;;;;5073326;28;20420;-88
2023/09/20 07:08:08;;;;;;;7.60;2.40;;;16.70;99.90;;;;;;5057037;28;20052;-87
2023/09/20 07:10:33;;;;;;;6.70;2.20;;;16.70;99.90;;;;;;5063944;28;20119;-88
2023/09/20 07:13:00;;;;;;;9.38;2.25;;;16.70;99.90;;;;;;5046463;28;20123;-88
2023/09/20 07:15:28;;;;;;;9.48;2.20;;;16.70;99.90;;;;;;5091297;28;20119;-89
2023/09/20 07:18:01;;;;;;;6.35;2.00;;;16.70;99.90;;;;;;5056433;28;20062;-88
2023/09/20 07:20:31;;;;;;;6.80;2.25;;;16.70;99.90;;;;;;5071026;28;20123;-87
2023/09/20 07:22:58;;;;;;;7.20;2.25;;;16.80;99.90;;;;;;5073153;28;20055;-87
2023/09/20 07:25:27;;;;;;;7.35;2.10;;;16.90;99.90;;;;;;5053694;28;20056;-87
2023/09/20 07:28:02;;;;;;;7.07;2.20;;;17.00;99.90;;;;;;5062651;28;20574;-89
2023/09/20 07:30:31;;;;;;;8.02;2.22;;;17.10;99.90;;;;;;5068749;28;20493;-88
2023/09/20 07:33:02;;;;;;;7.43;2.40;;;17.20;99.90;;;;;;5091415;28;20048;-87
2023/09/20 07:35:36;;;;;;;8.20;2.50;;;17.30;99.90;;;;;;5073322;28;20527;-87
2023/09/20 07:38:04;;;;;;;8.10;2.67;;;17.40;99.90;;;;;;5073040;28;20533;-88
2023/09/20 07:40:33;;;;;;;6.25;2.05;;;17.50;99.90;;;;;;5057869;28;20047;-87
2023/09/20 07:43:07;;;;;;;7.38;2.25;;;17.50;99.90;;;;;;5054796;28;20115;-88
2023/09/20 07:45:41;;;;;;;6.38;2.20;;;17.60;99.90;;;;;;5090918;28;20040;-87
2023/09/20 07:48:12;;;;;;;7.40;2.30;;;17.60;99.90;;;;;;5072962;28;20044;-87
2023/09/20 07:50:51;;;;;;;7.18;2.30;;;17.70;99.90;;;;;;5059149;28;20128;-88
2023/09/20 07:53:19;;;;;;;9.68;2.40;;;17.70;99.90;;;;;;5070846;28;20040;-87
2023/09/20 07:55:56;;;;;;;7.68;2.30;;;17.70;99.90;;;;;;5051640;28;20055;-88
2023/09/20 07:58:22;;;;;;;7.25;2.47;;;17.70;99.90;;;;;;5066880;28;20039;-87
2023/09/20 08:00:51;;;;;;;7.38;2.70;;;17.80;99.90;;;;;;5089116;28;20044;-88
2023/09/20 08:03:18;;;;;;;7.85;2.33;;;17.80;99.90;;;;;;5071522;28;20529;-88
2023/09/20 08:05:44;;;;;;;8.48;2.40;;;17.90;99.90;;;;;;5055655;28;20040;-88
2023/09/20 08:08:10;;;;;;;8.07;2.83;;;18.00;99.90;;;;;;5053817;28;20139;-86
2023/09/20 08:10:38;;;;;;;7.40;2.35;;;18.10;99.90;;;;;;5084099;28;20040;-87
2023/09/20 08:13:05;;;;;;;7.75;2.50;;;18.20;99.90;;;;;;5065331;28;20272;-89
2023/09/20 08:15:44;;;;;;;8.32;2.58;;;18.20;99.90;;;;;;5072146;28;20040;-87
2023/09/20 08:20:59;;;;;;;8.10;2.53;;;18.20;99.90;;;;;;5072460;28;20274;-87
2023/09/20 08:59:53;;;;;;;8.00;2.35;;;18.30;99.90;;;;;;5088865;28;20052;-88
2023/09/20 09:02:21;;;;;;;6.97;2.20;;;18.30;99.90;;;;;;5055075;28;20139;-88
2023/09/20 09:04:53;;;;;;;8.70;2.30;;;18.30;99.90;;;;;;5052037;28;20060;-88
2023/09/20 09:07:23;;;;;;;6.43;2.20;;;18.30;99.90;;;;;;5051874;28;20438;-87
2023/09/20 09:09:50;;;;;;;7.78;2.00;;;18.20;99.90;;;;;;5073650;28;20043;-87
2023/09/20 09:12:15;;;;;;;7.35;2.30;;;18.20;99.90;;;;;;5072007;28;20452;-89
2023/09/20 09:14:42;;;;;;;7.22;2.17;;;18.20;99.90;;;;;;5056333;28;20099;-88
2023/09/20 09:17:09;;;;;;;8.48;2.17;;;18.20;99.90;;;;;;5073763;28;20047;-88
2023/09/20 09:19:37;;;;;;;7.75;2.35;;;18.10;99.90;;;;;;5074883;28;20071;-88
2023/09/20 09:22:04;;;;;;;7.95;2.97;;;18.10;99.90;;;;;;5075188;28;20397;-88
2023/09/20 09:24:44;;;;;;;7.25;2.25;;;18.10;99.90;;;;;;5075441;28;20044;-87
2023/09/20 09:27:11;;;;;;;8.63;2.30;;;18.10;99.90;;;;;;5073014;28;20044;-87
2023/09/20 09:29:37;;;;;;;6.60;2.40;;;18.10;99.90;;;;;;5071464;28;20120;-87
2023/09/20 09:32:04;;;;;;;7.07;2.60;;;18.10;99.90;;;;;;5083490;28;20541;-88
2023/09/20 09:34:30;;;;;;;7.40;2.80;;;18.10;99.90;;;;;;5055844;28;20559;-88
2023/09/20 09:36:56;;;;;;;6.00;1.92;;;18.10;99.90;;;;;;5059821;28;20045;-87
2023/09/20 09:39:24;;;;;;;5.28;2.20;;;18.20;99.90;;;;;;5070930;28;20036;-88
2023/09/20 09:41:51;;;;;;;6.57;2.10;;;18.20;99.90;;;;;;5075088;28;20047;-87
2023/09/20 09:44:17;;;;;;;5.95;2.08;;;18.20;99.90;;;;;;5058558;28;20070;-87
2023/09/20 09:46:43;;;;;;;5.15;2.22;;;18.20;99.90;;;;;;5058248;28;20489;-87
2023/09/20 09:49:18;;;;;;;5.97;1.90;;;18.30;99.90;;;;;;5072265;28;20047;-88
2023/09/20 09:51:46;;;;;;;6.28;2.15;;;18.30;99.90;;;;;;5076272;28;20044;-88
2023/09/20 09:54:12;;;;;;;7.22;2.17;;;18.30;99.90;;;;;;5069977;28;20086;-87
2023/09/20 09:56:39;;;;;;;7.40;2.10;;;18.40;99.90;;;;;;5054588;28;20570;-87
2023/09/20 09:59:05;;;;;;;7.95;2.40;;;18.40;99.90;;;;;;5067811;28;20279;-88
2023/09/20 10:01:36;;;;;;;6.38;2.05;;;18.30;99.90;;;;;;5091380;28;20073;-88
2023/09/20 10:04:07;;;;;;;6.10;2.10;;;18.30;99.90;;;;;;5068715;28;20043;-88
2023/09/20 10:06:37;;;;;;;7.25;2.33;;;18.40;99.90;;;;;;5074343;28;20133;-87
2023/09/20 10:09:13;;;;;;;5.28;1.88;;;18.40;99.90;;;;;;5050854;28;20063;-87
2023/09/20 10:11:41;;;;;;;5.85;2.05;;;18.50;99.90;;;;;;5067919;28;20044;-89
2023/09/20 10:14:09;;;;;;;6.00;2.10;;;18.50;99.90;;;;;;5074300;28;20496;-88
2023/09/20 10:16:36;;;;;;;5.22;2.10;;;18.50;99.90;;;;;;5074283;28;20112;-90
2023/09/20 10:19:02;;;;;;;5.68;2.08;;;18.60;99.90;;;;;;5071773;28;20098;-87
2023/09/20 10:21:32;;;;;;;7.32;2.65;;;18.70;99.90;;;;;;5057224;28;20051;-87
2023/09/20 10:23:59;;;;;;;4.30;1.67;;;18.80;99.90;;;;;;5056671;28;20428;-88
2023/09/20 10:26:26;;;;;;;5.88;2.28;;;18.90;99.90;;;;;;5070766;28;20511;-88
2023/09/20 10:29:11;;;;;;;5.68;1.90;;;19.00;99.90;;;;;;5052396;28;20044;-87
2023/09/20 10:31:39;;;;;;;4.13;1.80;;;19.00;99.90;;;;;;5081493;28;20055;-88
2023/09/20 10:34:05;;;;;;;5.18;1.92;;;19.20;99.90;;;;;;5073994;28;20516;-90
2023/09/20 10:36:31;;;;;;;4.13;1.70;;;19.00;99.90;;;;;;5090809;28;20040;-88
2023/09/20 10:39:18;;;;;;;5.38;1.90;;;18.90;99.90;;;;;;5091826;28;20532;-87
2023/09/20 10:41:46;;;;;;;5.38;1.88;;;18.90;99.90;;;;;;5071005;28;20097;-89
2023/09/20 10:44:50;;;;;;;5.03;1.77;;;18.90;99.90;;;;;;5074000;28;20048;-89
2023/09/20 10:47:16;;;;;;;5.13;1.80;;;18.80;99.90;;;;;;5009105;28;20049;-88
2023/09/20 10:49:54;;;;;;;4.97;1.80;;;18.90;99.90;;;;;;5073657;28;20048;-88
2023/09/20 10:52:37;;;;;;;3.78;1.85;;;19.00;99.90;;;;;;5072699;28;20048;-88
2023/09/20 10:55:16;;;;;;;;;;;19.00;99.90;;;;;;5078031;28;20057;-89
2023/09/20 10:57:42;;;;;;;6.95;2.28;;;19.00;99.90;;;;;;5064726;28;20003;-89
2023/09/20 11:00:09;;;;;;;5.38;1.95;;;19.10;99.90;;;;;;5057020;28;20119;-89
2023/09/20 11:02:38;;;;;;;5.10;1.75;;;19.10;99.90;;;;;;5055074;28;20055;-88
2023/09/20 11:05:07;;;;;;;5.22;1.67;;;19.20;99.90;;;;;;5073852;28;20465;-88
2023/09/20 11:07:33;;;;;;;5.03;1.70;;;19.20;99.90;;;;;;5073275;28;20054;-87
2023/09/20 11:09:59;;;;;;;6.70;1.73;;;19.20;99.90;;;;;;5073304;28;20035;-89
2023/09/20 11:12:25;;;;;;;5.22;2.05;;;19.20;99.90;;;;;;5071948;28;20052;-87
2023/09/20 11:14:51;;;;;;;5.95;1.88;;;19.20;99.90;;;;;;5070152;28;20183;-87
2023/09/20 11:17:18;;;;;;;4.40;1.67;;;19.20;99.90;;;;;;5072254;28;20040;-88
2023/09/20 11:19:45;;;;;;;4.95;1.80;;;19.20;99.90;;;;;;5073583;28;20044;-88
2023/09/20 11:22:14;;;;;;;6.60;1.60;;;19.20;99.90;;;;;;5088320;28;20047;-88
2023/09/20 11:24:41;;;;;;;4.25;1.50;;;19.10;99.90;;;;;;5070582;28;20047;-89
2023/09/20 11:27:08;;;;;;;5.80;1.70;;;19.10;99.90;;;;;;5090942;28;20048;-87
2023/09/20 11:29:40;;;;;;;4.32;1.63;;;19.00;99.90;;;;;;5069790;28;20370;-88
2023/09/20 11:32:11;;;;;;;4.82;1.63;;;19.00;99.90;;;;;;5054461;28;20177;-87
2023/09/20 11:34:49;;;;;;;6.45;1.67;;;19.00;99.90;;;;;;5071638;28;20044;-87
2023/09/20 11:37:19;;;;;;;7.15;3.03;;;19.00;99.90;;;;;;5055846;28;20388;-88
2023/09/20 11:39:46;;;;;;;5.38;1.90;;;19.10;99.90;;;;;;5050224;28;20048;-88
2023/09/20 11:42:24;;;;;;;6.68;2.25;;;19.10;99.90;;;;;;5059000;28;20052;-88
2023/09/20 11:44:58;;;;;;;6.95;2.10;;;19.10;99.90;;;;;;5076709;28;20037;-88
2023/09/20 11:47:24;;;;;;;6.13;1.88;;;19.20;99.90;;;;;;5072851;28;20563;-87
2023/09/20 11:49:51;;;;;;;7.63;2.20;;;19.20;99.90;;;;;;5070343;28;20120;-87
2023/09/20 11:52:20;;;;;;;6.13;1.80;;;19.30;99.90;;;;;;5069067;28;20049;-88
2023/09/20 11:54:47;;;;;;;6.72;2.45;;;19.30;99.90;;;;;;5046138;28;20048;-87
2023/09/20 11:57:17;;;;;;;5.68;1.90;;;19.30;99.90;;;;;;5065587;28;20056;-88
2023/09/20 11:59:43;;;;;;;6.45;1.80;;;19.30;99.90;;;;;;5046960;28;20124;-88
2023/09/20 12:02:12;;;;;;;4.88;1.73;;;19.30;99.90;;;;;;5052539;28;20036;-89
2023/09/20 12:04:38;;;;;;;6.15;2.00;;;19.30;99.90;;;;;;5065225;28;20043;-88
2023/09/20 12:07:07;;;;;;;7.35;2.22;;;19.20;99.90;;;;;;5069072;28;20464;-87
2023/09/20 12:09:33;;;;;;;5.68;2.00;;;19.20;99.90;;;;;;5068995;28;20048;-87
2023/09/20 12:11:59;;;;;;;5.93;2.22;;;19.20;99.90;;;;;;5068419;28;20505;-88
2023/09/20 12:14:24;;;;;;;7.95;2.40;;;19.30;99.90;;;;;;5070320;28;20086;-87
2023/09/20 12:16:50;;;;;;;6.93;2.00;;;19.30;99.90;;;;;;5047620;28;20037;-87
2023/09/20 12:19:16;;;;;;;6.82;2.47;;;19.30;99.90;;;;;;5060471;28;20081;-88
2023/09/20 12:21:44;;;;;;;7.18;2.33;;;19.40;99.90;;;;;;5048507;28;20127;-88
2023/09/20 12:24:14;;;;;;;5.45;2.05;;;19.40;99.90;;;;;;5043268;28;20408;-87
2023/09/20 12:26:41;;;;;;;5.97;2.10;;;19.50;99.90;;;;;;5060808;28;20078;-87
2023/09/20 12:29:07;;;;;;;5.85;2.22;;;19.50;99.90;;;;;;5058017;28;20084;-88
2023/09/20 12:31:33;;;;;;;7.72;2.40;;;19.60;99.90;;;;;;5046030;28;20041;-88
2023/09/20 12:34:00;;;;;;;5.82;1.90;;;19.60;99.90;;;;;;5058940;28;20512;-88
2023/09/20 12:36:28;;;;;;;6.75;2.20;;;19.70;99.90;;;;;;5065133;28;20044;-88
2023/09/20 12:38:54;;;;;;;6.72;2.00;;;19.80;99.90;;;;;;5049936;28;20558;-87
2023/09/20 12:41:20;;;;;;;8.05;2.53;;;19.90;99.90;;;;;;5064350;28;20123;-87
2023/09/20 12:43:47;;;;;;;6.88;2.05;;;19.90;99.90;;;;;;5066896;28;20044;-88
2023/09/20 12:46:13;;;;;;;7.10;2.17;;;19.90;99.90;;;;;;5051623;28;20124;-88
2023/09/20 12:48:39;;;;;;;8.27;2.20;;;19.90;99.90;;;;;;5068705;28;20040;-88
2023/09/20 12:51:05;;;;;;;7.15;2.42;;;19.90;99.90;;;;;;5066717;28;20040;-87
2023/09/20 12:53:32;;;;;;;5.70;1.95;;;19.90;99.90;;;;;;5056191;28;20432;-88
2023/09/20 12:55:58;;;;;;;8.25;2.45;;;19.90;99.90;;;;;;5054167;28;20395;-88
2023/09/20 12:58:23;;;;;;;6.82;2.30;;;19.80;99.90;;;;;;5068688;28;20047;-89
2023/09/20 13:00:49;;;;;;;7.95;2.30;;;19.90;99.90;;;;;;5069285;28;20650;-89
2023/09/20 13:03:16;;;;;;;8.13;2.20;;;19.80;99.90;;;;;;5068625;28;20040;-87
2023/09/20 13:05:41;;;;;;;6.28;2.20;;;19.90;99.90;;;;;;5049673;28;20048;-87
2023/09/20 13:08:07;;;;;;;8.00;2.70;;;20.00;99.90;;;;;;5068157;28;20040;-87
2023/09/20 13:10:33;;;;;;;8.18;2.13;;;20.10;99.90;;;;;;5051558;28;20120;-88
2023/09/20 13:13:03;;;;;;;8.13;2.60;;;20.20;99.90;;;;;;5069353;28;20174;-88
2023/09/20 13:15:30;;;;;;;8.00;2.38;;;20.30;99.90;;;;;;5049407;28;20489;-87
2023/09/20 13:17:56;;;;;;;7.50;2.40;;;20.30;99.90;;;;;;5046045;28;20102;-87
2023/09/20 13:20:25;;;;;;;6.90;2.30;;;20.30;99.90;;;;;;5059214;28;20060;-87
2023/09/20 13:22:53;;;;;;;7.28;2.40;;;20.20;99.90;;;;;;5068159;28;20053;-87
2023/09/20 13:25:19;;;;;;;7.03;2.42;;;20.20;99.90;;;;;;5048023;28;20120;-88
2023/09/20 13:27:47;;;;;;;6.55;2.30;;;20.20;99.90;;;;;;5036480;28;20378;-88
2023/09/20 13:30:15;;;;;;;7.13;2.28;;;20.10;99.90;;;;;;5058058;28;20125;-88